Latest Weather Observations for Melbourne Airport

IDV60901

Issued at 7:41 pm EST Wednesday 29 June 2022 (issued every 10 minutes, with the page automatically refreshed every 10 minutes)

About weather observations | Map of Melbourne area stations | Latest observations for Melbourne area | Other Formats
Station Details ID: 086282 Name: MELBOURNE AIRPORT Lat: -37.67 Lon: 144.83 Height: 113.4 m
Data from the previous 72 hours. | See also: Recent months at Melbourne Airport
Date/Time
EST
Temp
°C
App
Temp
°C
Dew
Point
°C
Rel
Hum
%
Delta-T
°C
Wind Press
QNH
hPa
Press
MSL
hPa
Rain since
9am
mm
Dir  Spd
km/h
Gust
km/h
Spd
kts
Gust
kts
29/07:30pm 8.4 3.1 5.0 79 1.5 NNE 22 35 12 19 1021.6 1021.8 0.0
29/07:00pm 8.3 3.4 4.9 79 1.5 NNE 20 37 11 20 1021.1 1021.3 0.0
29/06:30pm 8.3 3.9 4.5 77 1.7 N 17 24 9 13 1021.2 1021.4 0.0
29/06:00pm 8.7 3.9 4.5 75 1.9 NNE 19 32 10 17 1020.9 1021.1 0.0
29/05:30pm 8.9 2.3 4.3 73 2.0 NNE 28 41 15 22 1020.5 1020.7 0.0
29/05:00pm 9.0 3.1 3.8 70 2.3 NE 24 37 13 20 1020.9 1021.1 0.0
29/04:30pm 9.3 2.7 4.1 70 2.3 NNE 28 39 15 21 1020.7 1020.9 0.0
29/04:00pm 9.5 2.9 4.1 69 2.4 NNE 28 37 15 20 1020.8 1021.0 0.0
29/03:30pm 9.9 3.2 3.9 66 2.7 NE 28 35 15 19 1021.1 1021.3 0.0
29/03:00pm 9.7 3.0 3.9 67 2.5 NNE 28 37 15 20 1021.6 1021.8 0.0
29/02:30pm 9.8 2.8 4.2 68 2.5 NNE 30 39 16 21 1021.5 1021.7 0.0
29/02:00pm 9.8 2.4 4.0 67 2.6 NNE 32 39 17 21 1021.4 1021.6 0.0
29/01:30pm 9.7 2.6 3.7 66 2.6 NNE 30 37 16 20 1021.8 1022.0 0.0
29/01:00pm 9.7 2.7 3.9 67 2.5 NNE 30 37 16 20 1022.1 1022.3 0.0
29/12:30pm 9.3 1.3 3.9 69 2.4 NNE 35 44 19 24 1022.5 1022.7 0.0
29/12:00pm 9.1 1.5 3.9 70 2.3 NNE 33 41 18 22 1023.1 1023.3 0.0
29/11:30am 9.1 1.1 3.9 70 2.3 NNE 35 44 19 24 1023.7 1023.9 0.0
29/11:00am 9.0 1.6 4.0 71 2.2 NNE 32 41 17 22 1024.2 1024.4 0.0
29/10:30am 8.9 2.3 4.3 73 2.0 NNE 28 33 15 18 1024.6 1024.7 0.0
29/10:00am 8.8 2.1 3.8 71 2.2 NNE 28 41 15 22 1024.8 1024.9 0.0
29/09:30am 8.3 2.9 4.3 76 1.8 NNE 22 35 12 19 1025.0 1025.1 0.0
29/09:00am 7.9 3.0 4.3 78 1.6 N 19 26 10 14 1025.1 1025.2 0.0
29/08:30am 7.6 2.5 4.0 78 1.6 N 20 26 11 14 1024.8 1024.9 0.0
29/08:00am 7.2 2.6 3.8 79 1.5 N 17 24 9 13 1024.9 1025.0 0.0
29/07:30am 7.4 1.8 3.6 77 1.6 N 22 30 12 16 1024.9 1025.0 0.0
29/07:00am 7.6 2.0 3.6 76 1.7 N 22 33 12 18 1024.8 1024.9 0.0
29/06:30am 7.0 0.3 3.6 79 1.5 N 28 39 15 21 1024.1 1024.3 0.0
29/06:00am 7.0 1.0 3.6 79 1.4 NNE 24 35 13 19 1023.6 1023.8 0.0
29/05:48am 6.9 0.2 3.7 80 1.4 NNE 28 48 15 26 1023.6 1023.8 0.0
29/05:30am 6.9 0.2 3.7 80 1.4 NNE 28 35 15 19 1023.9 1024.1 0.0
29/05:00am 7.1 0.4 3.9 80 1.4 NNE 28 41 15 22 1024.0 1024.2 0.0
29/04:30am 6.9 -0.7 3.9 81 1.3 NNE 33 44 18 24 1023.9 1024.1 0.0
29/04:00am 7.1 0.5 4.2 82 1.3 NNE 28 33 15 18 1024.2 1024.4 0.0
29/03:30am 7.0 0.8 4.1 82 1.3 NNE 26 33 14 18 1024.7 1024.8 0.0
29/03:00am 7.1 1.3 4.2 82 1.3 NNE 24 32 13 17 1025.0 1025.1 0.0
29/02:30am 7.1 1.0 4.6 84 1.1 NNE 26 33 14 18 1025.4 1025.5 0.0
29/02:00am 7.0 0.5 4.5 84 1.1 NNE 28 37 15 20 1025.2 1025.3 0.0
29/01:30am 6.9 -0.4 4.6 85 1.0 NNE 32 37 17 20 1025.4 1025.5 0.0
29/01:00am 7.0 1.3 4.7 85 1.0 NNE 24 30 13 16 1025.7 1025.8 0.0
29/12:30am 6.8 2.4 4.6 86 1.0 N 17 22 9 12 1026.2 1026.3 0.0
29/12:00am 6.7 0.9 4.5 86 1.0 NNE 24 30 13 16 1026.6 1026.8 0.0
 
Date/Time
EST
Temp
°C
App
Temp
°C
Dew
Point
°C
Rel
Hum
%
Delta-T
°C
Wind Press
QNH
hPa
Press
MSL
hPa
Rain since
9am
mm
Dir  Spd
km/h
Gust
km/h
Spd
kts
Gust
kts
28/11:30pm 6.8 2.0 4.6 86 1.0 NNE 19 26 10 14 1026.7 1026.9 0.0
28/11:00pm 7.2 1.0 4.5 83 1.2 NNE 26 35 14 19 1026.8 1027.0 0.0
28/10:56pm 7.2 0.7 4.7 84 1.1 NNE 28 35 15 19 1026.7 1026.9 0.0
28/10:30pm 6.3 3.6 3.8 84 1.1 NNW 7 13 4 7 1027.0 1027.2 0.0
28/10:00pm 6.6 2.8 4.1 84 1.1 NNE 13 20 7 11 1026.9 1027.1 0.0
28/09:30pm 5.4 0.7 3.4 87 0.8 NNE 17 19 9 10 1027.2 1027.4 0.0
28/09:00pm 7.1 3.3 3.9 80 1.4 N 13 19 7 10 1027.6 1027.8 0.0
28/08:30pm 7.6 2.8 4.6 81 1.3 N 19 26 10 14 1027.7 1027.9 0.0
28/08:00pm 8.3 2.2 4.7 78 1.6 NNE 26 37 14 20 1027.6 1027.8 0.0
28/07:30pm 8.8 1.0 5.0 77 1.7 NNE 35 52 19 28 1027.0 1027.2 0.0
28/07:00pm 8.7 1.5 4.9 77 1.7 NNE 32 39 17 21 1027.2 1027.4 0.0
28/06:30pm 8.8 1.6 5.0 77 1.7 NNE 32 50 17 27 1027.4 1027.6 0.0
28/06:23pm 8.9 2.5 5.1 77 1.7 NNE 28 48 15 26 1027.4 1027.6 0.0
28/06:00pm 9.0 3.7 5.0 76 1.8 N 22 32 12 17 1027.5 1027.7 0.0
28/05:30pm 9.5 4.2 5.1 74 2.0 N 22 28 12 15 1027.3 1027.5 0.0
28/05:00pm 10.0 4.7 5.2 72 2.2 N 22 28 12 15 1027.2 1027.4 0.0
28/04:30pm 10.8 5.9 5.3 69 2.5 N 20 28 11 15 1027.1 1027.3 0.0
28/04:00pm 11.5 5.5 5.2 65 2.9 NNE 26 35 14 19 1027.3 1027.5 0.0
28/03:30pm 12.2 6.3 5.6 64 3.1 NNE 26 37 14 20 1027.4 1027.6 0.0
28/03:00pm 12.5 5.3 5.7 63 3.2 NNE 33 43 18 23 1027.5 1027.7 0.0
28/02:30pm 11.9 4.6 5.5 65 3.0 NNE 33 43 18 23 1027.9 1028.1 0.0
28/02:00pm 11.5 5.3 6.0 69 2.6 NNE 28 37 15 20 1028.6 1028.8 0.0
28/01:30pm 11.5 5.9 5.2 65 2.9 NNE 24 35 13 19 1029.1 1029.3 0.0
28/01:00pm 11.3 5.3 5.4 67 2.7 NNE 26 32 14 17 1029.6 1029.8 0.0
28/12:30pm 11.6 6.8 5.7 67 2.8 N 20 28 11 15 1030.3 1030.5 0.0
28/12:00pm 11.0 6.8 5.7 70 2.4 NNE 17 22 9 12 1030.6 1030.8 0.0
28/11:30am 10.6 6.4 5.6 71 2.3 NNE 17 22 9 12 1031.1 1031.3 0.0
28/11:00am 10.1 6.3 5.7 74 2.0 NNE 15 19 8 10 1031.4 1031.6 0.0
28/10:30am 9.5 4.9 5.5 76 1.8 N 19 24 10 13 1031.7 1031.9 0.0
28/10:00am 9.4 4.6 4.8 73 2.0 N 19 24 10 13 1031.8 1032.0 0.0
28/09:30am 8.1 3.7 4.5 78 1.6 N 17 20 9 11 1031.6 1031.8 0.0
28/09:00am 6.6 1.4 3.6 81 1.3 N 20 26 11 14 1031.8 1032.0 0.0
28/08:30am 5.1 -0.2 2.8 85 0.9 N 20 26 11 14 1031.7 1031.9 0.0
28/08:00am 4.8 -0.4 2.5 85 0.9 N 19 22 10 12 1031.9 1032.1 0.0
28/07:30am 5.0 0.2 2.7 85 0.9 N 17 20 9 11 1031.8 1032.0 0.0
28/07:00am 4.7 -0.7 2.6 86 0.8 N 20 26 11 14 1031.4 1031.6 0.0
28/06:30am 4.5 -0.7 2.4 86 0.8 N 19 20 10 11 1031.2 1031.4 0.0
28/06:00am 4.3 -1.1 2.5 88 0.7 N 20 24 11 13 1031.2 1031.4 0.0
28/05:30am 4.8 -0.5 2.8 87 0.8 N 20 22 11 12 1031.3 1031.5 0.0
28/05:00am 4.3 -0.9 2.7 89 0.6 N 19 20 10 11 1031.3 1031.5 0.0
28/04:30am 4.8 -0.3 3.1 89 0.7 N 19 20 10 11 1031.2 1031.4 0.0
28/04:00am 5.7 0.6 3.9 88 0.8 N 20 26 11 14 1031.3 1031.5 0.0
28/03:30am 5.5 0.4 4.0 90 0.6 N 20 24 11 13 1031.6 1031.8 0.0
28/03:00am 4.7 0.0 3.4 91 0.5 N 17 17 9 9 1032.1 1032.3 0.0
28/02:30am 5.0 0.8 3.7 91 0.5 N 15 17 8 9 1032.1 1032.3 0.0
28/02:00am 6.4 2.7 4.6 88 0.8 N 13 17 7 9 1032.2 1032.4 0.0
28/01:30am 6.2 2.5 4.5 89 0.7 N 13 15 7 8 1032.1 1032.3 0.0
28/01:00am 6.9 3.2 4.7 86 1.0 N 13 13 7 7 1032.3 1032.5 0.0
28/12:30am 6.6 3.0 5.1 90 0.7 N 13 15 7 8 1032.5 1032.7 0.0
28/12:00am 6.3 2.2 4.3 87 0.9 NNE 15 17 8 9 1032.4 1032.6 0.0
 
Date/Time
EST
Temp
°C
App
Temp
°C
Dew
Point
°C
Rel
Hum
%
Delta-T
°C
Wind Press
QNH
hPa
Press
MSL
hPa
Rain since
9am
mm
Dir  Spd
km/h
Gust
km/h
Spd
kts
Gust
kts
27/11:30pm 6.6 3.3 4.8 88 0.8 N 11 15 6 8 1032.6 1032.8 0.0
27/11:00pm 7.9 5.1 5.2 83 1.2 NNW 9 11 5 6 1032.7 1032.9 0.0
27/10:30pm 6.7 2.7 4.7 87 0.9 N 15 17 8 9 1032.9 1033.1 0.0
27/10:00pm 7.4 4.6 5.2 86 1.0 NNW 9 11 5 6 1033.0 1033.2 0.0
27/09:30pm 6.7 4.2 4.9 88 0.8 NNW 7 9 4 5 1033.0 1033.2 0.0
27/09:00pm 7.2 4.7 5.0 86 1.0 N 7 11 4 6 1033.2 1033.4 0.0
27/08:30pm 6.7 4.2 4.7 87 0.9 N 7 7 4 4 1033.0 1033.2 0.0
27/08:00pm 7.5 5.8 3.9 78 1.5 N 2 7 1 4 1033.2 1033.4 0.0
27/07:30pm 7.9 6.7 4.5 79 1.5 CALM 0 0 0 0 1033.0 1033.2 0.0
27/07:00pm 8.3 7.0 4.3 76 1.7 CALM 0 0 0 0 1032.8 1033.0 0.0
27/06:30pm 8.4 7.2 4.8 78 1.6 CALM 0 0 0 0 1032.8 1033.0 0.0
27/06:00pm 8.7 6.3 4.1 73 2.0 SW 6 6 3 3 1032.8 1033.0 0.0
27/05:30pm 8.8 6.7 4.0 72 2.1 SW 4 7 2 4 1032.7 1032.9 0.0
27/05:00pm 9.8 7.2 4.4 69 2.4 SSW 7 11 4 6 1032.6 1032.8 0.0
27/04:30pm 10.4 6.7 4.3 66 2.7 SSW 13 15 7 8 1032.6 1032.8 0.0
27/04:00pm 11.2 7.5 4.4 63 3.0 SSW 13 17 7 9 1032.6 1032.8 0.0
27/03:30pm 11.4 6.9 4.4 62 3.2 SSW 17 26 9 14 1032.6 1032.8 0.0
27/03:00pm 11.8 9.6 6.3 69 2.6 S 7 13 4 7 1032.3 1032.5 0.0
27/02:30pm 11.0 9.0 6.2 72 2.3 SSE 6 11 3 6 1032.4 1032.6 0.0
27/02:00pm 10.6 6.7 7.1 79 1.7 SE 17 22 9 12 1032.3 1032.5 0.0
27/01:30pm 11.1 6.3 5.8 70 2.5 SW 20 30 11 16 1032.5 1032.7 0.0
27/01:00pm 11.4 6.7 6.1 70 2.5 SW 20 28 11 15 1032.7 1032.9 0.0
27/12:30pm 11.2 6.7 6.1 71 2.4 SW 19 26 10 14 1033.1 1033.3 0.0
27/12:00pm 10.1 7.6 6.6 79 1.6 SW 9 13 5 7 1033.2 1033.4 0.0
27/11:30am 9.1 3.3 6.2 82 1.3 SSW 26 35 14 19 1033.7 1033.8 0.0
27/11:00am 10.7 6.6 6.1 73 2.1 SW 17 24 9 13 1033.5 1033.6 0.0
27/10:30am 9.6 5.3 5.4 75 1.9 SW 17 22 9 12 1033.5 1033.6 0.0
27/10:00am 9.5 5.6 5.5 76 1.8 WSW 15 20 8 11 1033.0 1033.2 0.0
27/09:30am 8.8 4.0 4.8 76 1.8 WSW 19 24 10 13 1032.5 1032.7 0.0
27/09:00am 7.4 3.3 4.2 80 1.4 W 15 19 8 10 1032.2 1032.4 2.0
27/08:30am 6.5 2.3 3.8 83 1.2 W 15 19 8 10 1032.2 1032.4 2.0
27/08:00am 4.7 0.3 2.9 88 0.7 W 15 17 8 9 1032.0 1032.2 2.0
27/07:30am 5.2 1.3 3.5 89 0.7 W 13 17 7 9 1032.0 1032.2 2.0
27/07:00am 5.1 1.5 2.8 85 0.9 W 11 15 6 8 1031.7 1031.9 2.0
27/06:30am 5.2 1.2 3.1 86 0.9 W 13 15 7 8 1031.5 1031.7 2.0
27/06:00am 5.3 1.3 3.0 85 0.9 WSW 13 20 7 11 1031.2 1031.4 2.0
27/05:30am 5.7 0.6 3.2 84 1.0 W 19 28 10 15 1030.7 1030.9 2.0
27/05:00am 5.9 1.3 3.6 85 1.0 W 17 24 9 13 1030.4 1030.6 2.0
27/04:30am 5.3 0.6 3.3 87 0.8 W 17 26 9 14 1030.3 1030.5 2.0
27/04:00am 5.6 1.0 3.6 87 0.8 W 17 22 9 12 1030.2 1030.4 2.0
27/03:30am 5.0 0.3 3.2 88 0.7 W 17 19 9 10 1030.1 1030.3 2.0
27/03:00am 5.8 0.6 3.6 86 0.9 W 20 26 11 14 1030.2 1030.4 2.0
27/02:30am 6.0 1.4 3.8 86 0.9 W 17 20 9 11 1029.8 1030.0 2.0
27/02:00am 5.4 1.2 3.6 88 0.8 WSW 15 19 8 10 1029.8 1030.0 2.0
27/01:30am 5.7 1.5 3.7 87 0.8 W 15 19 8 10 1029.5 1029.7 2.0
27/01:00am 5.8 1.3 4.0 88 0.8 W 17 22 9 12 1029.5 1029.7 2.0
27/12:30am 5.9 1.0 3.9 87 0.9 W 19 24 10 13 1029.6 1029.8 2.0
27/12:00am 5.8 0.9 4.0 88 0.8 W 19 22 10 12 1029.5 1029.7 2.0
 
Date/Time
EST
Temp
°C
App
Temp
°C
Dew
Point
°C
Rel
Hum
%
Delta-T
°C
Wind Press
QNH
hPa
Press
MSL
hPa
Rain since
9am
mm
Dir  Spd
km/h
Gust
km/h
Spd
kts
Gust
kts
26/11:30pm 6.1 1.2 4.1 87 0.9 W 19 24 10 13 1029.5 1029.7 2.0
26/11:00pm 6.2 1.3 4.2 87 0.9 W 19 26 10 14 1029.3 1029.5 2.0
26/10:30pm 6.5 1.6 4.3 86 1.0 W 19 22 10 12 1029.0 1029.2 2.0
26/10:00pm 6.8 2.0 4.5 85 1.0 W 19 24 10 13 1028.7 1028.9 2.0
26/09:30pm 5.9 1.4 4.2 89 0.7 W 17 19 9 10 1028.6 1028.8 2.0
26/09:00pm 6.9 2.5 4.9 87 0.9 W 17 20 9 11 1028.1 1028.3 2.0
26/08:30pm 6.7 2.3 5.0 89 0.7 W 17 20 9 11 1027.7 1027.9 2.0
26/08:00pm 7.6 3.8 5.7 88 0.9 W 15 19 8 10 1027.3 1027.5 2.0

Latest Capital City Observations: Canberra | Sydney | Melbourne | Brisbane | Adelaide | Perth | Hobart | Darwin

Other formats

Comma delimited format used in spreadsheet applications
http://www.bom.gov.au/fwo/IDV60901/IDV60901.94866.axf

JavaScript Object Notation format (JSON) in row-major order
http://www.bom.gov.au/fwo/IDV60901/IDV60901.94866.json

Data quality

Most of these data are generated automatically and are frequently updated. Quality checks on data are not normally performed. It is possible for incorrect values to appear. Refer to information at About Latest Weather Observations and please check the disclaimer before using these data.